Time;durP1;ratioP1;P1;durP2;ratioP2;P2;SDS_P1;SDS_P2;PMS_P1;PMS_P2;Temp;Humidity;BMP_temperature;BMP_pressure;BME280_temperature;BME280_humidity;BME280_pressure;Samples;Min_cycle;Max_cycle;Signal;HPM_P1;HPM_P2
2023/03/19 00:02:14;;;;;;;;;;;8.80;99.90;;;;;;6185863;23;19931;-88
2023/03/19 00:04:39;;;;;;;;;;;8.50;99.90;;;;;;6185418;23;20339;-89
2023/03/19 00:07:06;;;;;;;;;;;8.60;99.90;;;;;;6213127;23;19946;-87
2023/03/19 00:09:31;;;;;;;;;;;8.50;99.90;;;;;;6213362;23;19900;-88
2023/03/19 00:11:57;;;;;;;;;;;8.40;99.90;;;;;;6185690;23;20333;-85
2023/03/19 00:14:22;;;;;;;;;;;8.30;99.90;;;;;;6211237;23;19900;-86
2023/03/19 00:16:48;;;;;;;;;;;9.00;99.90;;;;;;6211975;23;19899;-88
2023/03/19 00:19:14;;;;;;;;;;;8.50;99.90;;;;;;6211338;23;19904;-89
2023/03/19 00:21:40;;;;;;;;;;;8.40;99.90;;;;;;6184946;23;20316;-86
2023/03/19 00:24:05;;;;;;;;;;;8.50;99.90;;;;;;6212878;23;19900;-89
2023/03/19 00:26:32;;;;;;;;;;;8.40;99.90;;;;;;6211675;23;19907;-87
2023/03/19 00:28:58;;;;;;;;;;;9.30;99.90;;;;;;6211520;23;20340;-84
2023/03/19 00:31:24;;;;;;;;;;;8.40;99.90;;;;;;6211757;23;19900;-87
2023/03/19 00:33:50;;;;;;;;;;;8.70;99.90;;;;;;6210471;23;19903;-87
2023/03/19 00:36:16;;;;;;;;;;;8.20;99.90;;;;;;6211327;23;20403;-86
2023/03/19 00:38:42;;;;;;;;;;;8.10;99.90;;;;;;6211379;23;19915;-86
2023/03/19 00:41:08;;;;;;;;;;;8.30;99.90;;;;;;6211644;23;19925;-85
2023/03/19 00:43:33;;;;;;;;;;;8.20;99.90;;;;;;6212572;23;20321;-87
2023/03/19 00:45:59;;;;;;;;;;;8.20;99.90;;;;;;6210921;23;19900;-86
2023/03/19 00:48:25;;;;;;;;;;;9.30;99.90;;;;;;6211291;23;19900;-88
2023/03/19 00:50:50;;;;;;;;;;;8.20;99.90;;;;;;6184998;23;19911;-86
2023/03/19 00:53:16;;;;;;;;;;;8.10;99.90;;;;;;6211866;23;20280;-90
2023/03/19 00:55:42;;;;;;;;;;;8.00;99.90;;;;;;6212255;23;20202;-87
2023/03/19 00:58:09;;;;;;;;;;;7.90;99.90;;;;;;6185506;23;19908;-88
2023/03/19 01:00:35;;;;;;;;;;;8.40;99.90;;;;;;6212489;23;19952;-90
2023/03/19 01:03:00;;;;;;;;;;;7.90;99.90;;;;;;6211721;23;19904;-86
2023/03/19 01:05:26;;;;;;;;;;;8.60;99.90;;;;;;6211025;23;19899;-86
2023/03/19 01:07:51;;;;;;;;;;;8.00;99.90;;;;;;6211877;23;19900;-88
2023/03/19 01:10:17;;;;;;;;;;;7.70;99.90;;;;;;6211251;23;20283;-87
2023/03/19 01:12:43;;;;;;;;;;;7.60;99.90;;;;;;6184797;23;19927;-87
2023/03/19 01:15:08;;;;;;;;;;;7.60;99.90;;;;;;6213249;23;20257;-88
2023/03/19 01:17:34;;;;;;;;;;;7.50;99.90;;;;;;6211413;23;19908;-87
2023/03/19 01:20:00;;;;;;;;;;;7.70;99.90;;;;;;6211181;23;19982;-86
2023/03/19 01:22:26;;;;;;;;;;;8.10;99.90;;;;;;6185116;23;19938;-88
2023/03/19 01:24:51;;;;;;;;;;;7.60;99.90;;;;;;6211460;23;19900;-88
2023/03/19 01:27:17;;;;;;;;;;;7.50;99.90;;;;;;6211022;23;19923;-89
2023/03/19 01:29:42;;;;;;;;;;;7.60;99.90;;;;;;6184618;23;20232;-88
2023/03/19 01:32:08;;;;;;;;;;;7.80;99.90;;;;;;6212306;23;19907;-87
2023/03/19 01:34:34;;;;;;;;;;;7.80;99.90;;;;;;6211223;23;19900;-88
2023/03/19 01:37:00;;;;;;;;;;;7.90;99.90;;;;;;6211419;23;20407;-87
2023/03/19 01:39:26;;;;;;;;;;;8.40;99.90;;;;;;6211021;23;19908;-88
2023/03/19 01:41:52;;;;;;;;;;;8.00;99.90;;;;;;6185149;23;19900;-88
2023/03/19 01:44:21;;;;;;;;;;;8.00;99.90;;;;;;6208749;23;19946;-86
2023/03/19 01:46:47;;;;;;;;;;;8.10;99.90;;;;;;6208913;23;19934;-88
2023/03/19 01:49:12;;;;;;;;;;;8.50;99.90;;;;;;6207763;23;19900;-89
2023/03/19 01:51:39;;;;;;;;;;;8.20;99.90;;;;;;6207497;23;19900;-87
2023/03/19 01:54:08;;;;;;;;;;;8.20;99.90;;;;;;6208252;23;19907;-88
2023/03/19 01:56:36;;;;;;;;;;;8.90;99.90;;;;;;6211051;23;20336;-88
2023/03/19 01:59:04;;;;;;;;;;;8.50;99.90;;;;;;6210878;23;19992;-87
2023/03/19 02:01:33;;;;;;;;;;;8.20;99.90;;;;;;6184240;23;19900;-84
2023/03/19 02:03:58;;;;;;;;;;;8.30;99.90;;;;;;6211056;23;20241;-88
2023/03/19 02:06:24;;;;;;;;;;;8.70;99.90;;;;;;6211356;23;19907;-89
2023/03/19 02:08:50;;;;;;;;;;;8.30;99.90;;;;;;6211059;23;19900;-87
2023/03/19 02:11:17;;;;;;;;;;;9.20;99.90;;;;;;6206959;23;20371;-90
2023/03/19 02:13:42;;;;;;;;;;;8.60;99.90;;;;;;6181226;23;19978;-86
2023/03/19 02:16:08;;;;;;;;;;;8.60;99.90;;;;;;6207317;23;20288;-88
2023/03/19 02:18:35;;;;;;;;;;;8.40;99.90;;;;;;6207023;23;20152;-86
2023/03/19 02:21:08;;;;;;;;;;;8.50;99.90;;;;;;6206020;23;19914;-87
2023/03/19 02:23:42;;;;;;;;;;;8.50;99.90;;;;;;6181462;23;19900;-89
2023/03/19 02:26:10;;;;;;;;;;;8.40;99.90;;;;;;6207861;23;19899;-91
2023/03/19 02:28:38;;;;;;;;;;;8.50;99.90;;;;;;6206768;23;20329;-87
2023/03/19 02:31:04;;;;;;;;;;;8.80;99.90;;;;;;6206760;23;19958;-89
2023/03/19 02:33:30;;;;;;;;;;;8.50;99.90;;;;;;6206372;23;20317;-87
2023/03/19 02:35:56;;;;;;;;;;;8.90;99.90;;;;;;6207401;23;19907;-87
2023/03/19 02:38:23;;;;;;;;;;;8.50;99.90;;;;;;6206705;23;19911;-89
2023/03/19 02:40:53;;;;;;;;;;;8.40;99.90;;;;;;6206325;23;19900;-85
2023/03/19 02:43:20;;;;;;;;;;;8.40;99.90;;;;;;6207760;23;19907;-86
2023/03/19 02:45:46;;;;;;;;;;;8.50;99.90;;;;;;6207952;23;19994;-87
2023/03/19 02:48:11;;;;;;;;;;;8.50;99.90;;;;;;6208577;23;20319;-89
2023/03/19 02:50:37;;;;;;;;;;;8.60;99.90;;;;;;6208586;23;19935;-89
2023/03/19 02:53:02;;;;;;;;;;;8.40;99.90;;;;;;6207666;23;19900;-87
2023/03/19 02:55:28;;;;;;;;;;;8.40;99.90;;;;;;6207697;23;19899;-90
2023/03/19 02:57:54;;;;;;;;;;;8.50;99.90;;;;;;6207824;23;20287;-87
2023/03/19 03:00:19;;;;;;;;;;;8.40;99.90;;;;;;6209836;23;19904;-87
2023/03/19 03:02:45;;;;;;;;;;;8.40;99.90;;;;;;6208331;23;19937;-87
2023/03/19 03:05:11;;;;;;;;;;;8.40;99.90;;;;;;6209928;23;19950;-88
2023/03/19 03:07:37;;;;;;;;;;;9.00;99.90;;;;;;6209663;23;19952;-91
2023/03/19 03:10:02;;;;;;;;;;;9.60;99.90;;;;;;6208014;23;19947;-92
2023/03/19 03:12:28;;;;;;;;;;;8.30;99.90;;;;;;6208437;23;19935;-89
2023/03/19 03:14:53;;;;;;;;;;;8.60;99.90;;;;;;6209428;23;19907;-89
2023/03/19 03:17:19;;;;;;;;;;;8.30;99.90;;;;;;6182277;23;19904;-88
2023/03/19 03:19:44;;;;;;;;;;;8.40;99.90;;;;;;6210692;23;19908;-86
2023/03/19 03:22:10;;;;;;;;;;;8.40;99.90;;;;;;6208270;23;19933;-86
2023/03/19 03:24:38;;;;;;;;;;;8.40;99.90;;;;;;6209804;23;20232;-87
2023/03/19 03:27:04;;;;;;;;;;;8.50;99.90;;;;;;6210345;23;19900;-89
2023/03/19 03:29:30;;;;;;;;;;;8.40;99.90;;;;;;6184276;23;19965;-88
2023/03/19 03:31:55;;;;;;;;;;;8.40;99.90;;;;;;6211321;23;19906;-89
2023/03/19 03:34:21;;;;;;;;;;;8.40;99.90;;;;;;6207369;23;19987;-89
2023/03/19 03:36:46;;;;;;;;;;;9.20;99.90;;;;;;6209815;23;19899;-86
2023/03/19 03:39:12;;;;;;;;;;;8.40;99.90;;;;;;6211021;23;19904;-87
2023/03/19 03:41:38;;;;;;;;;;;8.70;99.90;;;;;;6185370;23;20301;-87
2023/03/19 03:44:04;;;;;;;;;;;8.40;99.90;;;;;;6212333;23;19927;-88
2023/03/19 03:46:29;;;;;;;;;;;8.40;99.90;;;;;;6212211;23;19900;-85
2023/03/19 03:48:55;;;;;;;;;;;8.40;99.90;;;;;;6185421;23;19904;-87
2023/03/19 03:51:21;;;;;;;;;;;8.40;99.90;;;;;;6211357;23;20347;-88
2023/03/19 03:53:46;;;;;;;;;;;8.30;99.90;;;;;;6212866;23;19900;-87
2023/03/19 03:56:12;;;;;;;;;;;8.20;99.90;;;;;;6185397;23;19904;-85
2023/03/19 03:58:38;;;;;;;;;;;8.30;99.90;;;;;;6185431;23;20011;-89
2023/03/19 04:01:03;;;;;;;;;;;8.70;99.90;;;;;;6212476;23;19900;-89
2023/03/19 04:03:29;;;;;;;;;;;8.30;99.90;;;;;;6212644;23;19907;-92
2023/03/19 04:05:55;;;;;;;;;;;8.30;99.90;;;;;;6185830;23;19900;-89
2023/03/19 04:08:21;;;;;;;;;;;8.30;99.90;;;;;;6210983;23;19910;-90
2023/03/19 04:10:47;;;;;;;;;;;8.30;99.90;;;;;;6186491;23;19904;-88
2023/03/19 04:13:12;;;;;;;;;;;8.40;99.90;;;;;;6185724;23;19908;-90
2023/03/19 04:15:40;;;;;;;;;;;9.50;99.90;;;;;;6211261;23;19935;-87
2023/03/19 04:18:06;;;;;;;;;;;9.30;99.90;;;;;;6211021;23;20245;-86
2023/03/19 04:20:31;;;;;;;;;;;8.40;99.90;;;;;;6211743;23;19908;-88
2023/03/19 04:22:57;;;;;;;;;;;8.40;99.90;;;;;;6211705;23;19911;-85
2023/03/19 04:25:22;;;;;;;;;;;8.30;99.90;;;;;;6184961;23;19900;-87
2023/03/19 04:27:48;;;;;;;;;;;8.30;99.90;;;;;;6212937;23;19900;-87
2023/03/19 04:30:14;;;;;;;;;;;8.30;99.90;;;;;;6212360;23;19900;-87
2023/03/19 04:32:39;;;;;;;;;;;8.30;99.90;;;;;;6185263;23;20301;-88
2023/03/19 04:35:05;;;;;;;;;;;8.30;99.90;;;;;;6211471;23;19900;-85
2023/03/19 04:37:31;;;;;;;;;;;8.30;99.90;;;;;;6184773;23;19998;-85
2023/03/19 04:39:56;;;;;;;;;;;8.40;99.90;;;;;;6184620;23;20325;-85
2023/03/19 04:42:22;;;;;;;;;;;8.30;99.90;;;;;;6184759;23;19946;-86
2023/03/19 04:44:48;;;;;;;;;;;8.30;99.90;;;;;;6186006;23;19946;-85
2023/03/19 04:47:13;;;;;;;;;;;9.20;99.90;;;;;;6184996;23;19900;-86
2023/03/19 04:49:39;;;;;;;;;;;8.60;99.90;;;;;;6211513;23;19951;-86
2023/03/19 04:52:05;;;;;;;;;;;8.40;99.90;;;;;;6184635;23;19907;-85
2023/03/19 04:54:30;;;;;;;;;;;8.30;99.90;;;;;;6210980;23;19900;-85
2023/03/19 04:56:56;;;;;;;;;;;8.30;99.90;;;;;;6211769;23;19900;-86
2023/03/19 04:59:21;;;;;;;;;;;8.30;99.90;;;;;;6211684;23;20269;-84
2023/03/19 05:01:47;;;;;;;;;;;8.40;99.90;;;;;;6212420;23;20283;-86
2023/03/19 05:04:12;;;;;;;;;;;8.30;99.90;;;;;;6184715;23;19950;-85
2023/03/19 05:06:38;;;;;;;;;;;9.00;99.90;;;;;;6184502;23;19906;-86
2023/03/19 05:09:05;;;;;;;;;;;8.40;99.90;;;;;;6211221;23;20321;-87
2023/03/19 05:11:31;;;;;;;;;;;9.20;99.90;;;;;;6211632;23;19904;-90
2023/03/19 05:13:56;;;;;;;;;;;8.40;99.90;;;;;;6211176;23;19907;-86
2023/03/19 05:16:22;;;;;;;;;;;9.50;99.90;;;;;;6212279;23;19900;-86
2023/03/19 05:18:47;;;;;;;;;;;8.50;99.90;;;;;;6184374;23;19919;-85
2023/03/19 05:21:13;;;;;;;;;;;8.50;99.90;;;;;;6210766;23;20337;-86
2023/03/19 05:23:39;;;;;;;;;;;9.10;99.90;;;;;;6184221;23;19906;-86
2023/03/19 05:26:05;;;;;;;;;;;9.20;99.90;;;;;;6210226;23;19900;-85
2023/03/19 05:28:31;;;;;;;;;;;8.50;99.90;;;;;;6183908;23;20019;-87
2023/03/19 05:30:56;;;;;;;;;;;9.40;99.90;;;;;;6211076;23;19904;-87
2023/03/19 05:33:22;;;;;;;;;;;9.00;99.90;;;;;;6185141;23;19900;-88
2023/03/19 05:35:47;;;;;;;;;;;8.70;99.90;;;;;;6211554;23;20317;-88
2023/03/19 05:38:13;;;;;;;;;;;9.00;99.90;;;;;;6210732;23;20137;-85
2023/03/19 05:40:41;;;;;;;;;;;8.60;99.90;;;;;;6184776;23;19900;-89
2023/03/19 05:43:08;;;;;;;;;;;9.00;99.90;;;;;;6211178;23;19900;-88
2023/03/19 05:45:34;;;;;;;;;;;8.70;99.90;;;;;;6211071;23;19907;-88
2023/03/19 05:48:00;;;;;;;;;;;9.40;99.90;;;;;;6211103;23;19935;-90
2023/03/19 05:50:26;;;;;;;;;;;9.10;99.90;;;;;;6210870;23;19904;-86
2023/03/19 05:52:52;;;;;;;;;;;10.00;99.90;;;;;;6211883;23;19904;-87
2023/03/19 05:55:17;;;;;;;;;;;8.90;99.90;;;;;;6211025;23;19911;-87
2023/03/19 05:57:43;;;;;;;;;;;8.80;99.90;;;;;;6184549;23;20225;-90
2023/03/19 06:00:09;;;;;;;;;;;9.00;99.90;;;;;;6210743;23;19900;-88
2023/03/19 06:02:34;;;;;;;;;;;8.80;99.90;;;;;;6184365;23;19900;-86
2023/03/19 06:05:00;;;;;;;;;;;8.80;99.90;;;;;;6184384;23;19906;-88
2023/03/19 06:07:25;;;;;;;;;;;9.60;99.90;;;;;;6184177;23;19935;-87
2023/03/19 06:09:51;;;;;;;;;;;9.20;99.90;;;;;;6184751;23;20291;-87
2023/03/19 06:12:16;;;;;;;;;;;9.30;99.90;;;;;;6210769;23;19901;-87
2023/03/19 06:14:42;;;;;;;;;;;8.90;99.90;;;;;;6211167;23;19907;-89
2023/03/19 06:17:08;;;;;;;;;;;8.70;99.90;;;;;;6210994;23;20237;-87
2023/03/19 06:19:34;;;;;;;;;;;8.80;99.90;;;;;;6184394;23;19938;-88
2023/03/19 06:21:59;;;;;;;;;;;8.80;99.90;;;;;;6211011;23;19900;-88
2023/03/19 06:24:25;;;;;;;;;;;9.70;99.90;;;;;;6185012;23;19926;-86
2023/03/19 06:26:51;;;;;;;;;;;8.80;99.90;;;;;;6211480;23;19926;-91
2023/03/19 06:29:16;;;;;;;;;;;9.40;99.90;;;;;;6210816;23;19899;-88
2023/03/19 06:31:42;;;;;;;;;;;8.80;99.90;;;;;;6211999;23;19904;-86
2023/03/19 06:34:08;;;;;;;;;;;8.80;99.90;;;;;;6186181;23;19974;-85
2023/03/19 06:36:33;;;;;;;;;;;8.60;99.90;;;;;;6212858;23;20321;-88
2023/03/19 06:38:59;;;;;;;;;;;8.50;99.90;;;;;;6213075;23;20395;-89
2023/03/19 06:41:25;;;;;;;;;;;8.40;99.90;;;;;;6213786;23;19899;-87
2023/03/19 06:43:51;;;;;;;;;;;8.90;99.90;;;;;;6212781;23;19932;-85
2023/03/19 06:46:16;;;;;;;;;;;9.20;99.90;;;;;;6212720;23;19908;-87
2023/03/19 06:48:42;;;;;;;;;;;8.50;99.90;;;;;;6185987;23;19899;-86
2023/03/19 06:51:07;;;;;;;;;;;9.60;99.90;;;;;;6212534;23;19900;-84
2023/03/19 06:53:33;;;;;;;;;;;9.30;99.90;;;;;;6212715;23;20218;-85
2023/03/19 06:55:58;;;;;;;;;;;8.70;99.90;;;;;;6212173;23;20233;-85
2023/03/19 06:58:24;;;;;;;;;;;9.00;99.90;;;;;;6213607;23;19915;-86
2023/03/19 07:00:49;;;;;;;;;;;8.60;99.90;;;;;;6212363;23;19904;-85
2023/03/19 07:03:15;;;;;;;;;;;9.20;99.90;;;;;;6212394;23;19907;-86
2023/03/19 07:05:40;;;;;;;;;;;8.70;99.90;;;;;;6212393;23;19927;-86
2023/03/19 07:08:10;;;;;;;;;;;8.70;99.90;;;;;;6212722;23;19900;-85
2023/03/19 07:10:39;;;;;;;;;;;9.20;99.90;;;;;;6212598;23;19954;-86
2023/03/19 07:13:04;;;;;;;;;;;9.20;99.90;;;;;;6212060;23;19904;-86
2023/03/19 07:15:30;;;;;;;;;;;8.70;99.90;;;;;;6185380;23;20288;-84
2023/03/19 07:17:56;;;;;;;;;;;8.60;99.90;;;;;;6213167;23;19908;-84
2023/03/19 07:20:21;;;;;;;;;;;8.70;99.90;;;;;;6211232;23;19954;-85
2023/03/19 07:22:49;;;;;;;;;;;8.60;99.90;;;;;;6212469;23;19934;-85
2023/03/19 07:25:14;;;;;;;;;;;8.70;99.90;;;;;;6212323;23;19900;-85
2023/03/19 07:27:40;;;;;;;;;;;8.50;99.90;;;;;;6211293;23;19962;-85
2023/03/19 07:30:06;;;;;;;;;;;8.60;99.90;;;;;;6212048;23;19900;-85
2023/03/19 07:32:31;;;;;;;;;;;8.60;99.90;;;;;;6211056;23;19904;-84
2023/03/19 07:34:57;;;;;;;;;;;8.60;99.90;;;;;;6212580;23;19900;-88
2023/03/19 07:37:22;;;;;;;;;;;9.50;99.90;;;;;;6185059;23;19907;-88
2023/03/19 07:39:48;;;;;;;;;;;8.60;99.90;;;;;;6211499;23;19904;-86
2023/03/19 07:42:13;;;;;;;;;;;8.60;99.90;;;;;;6212215;23;20351;-84
2023/03/19 07:44:39;;;;;;;;;;;8.70;99.90;;;;;;6185460;23;19900;-87
2023/03/19 07:47:05;;;;;;;;;;;8.70;99.90;;;;;;6211982;23;20252;-86
2023/03/19 07:49:30;;;;;;;;;;;8.80;99.90;;;;;;6184715;23;19907;-85
2023/03/19 07:51:56;;;;;;;;;;;9.60;99.90;;;;;;6213133;23;20596;-86
2023/03/19 07:54:22;;;;;;;;;;;9.10;99.90;;;;;;6210865;23;20245;-86
2023/03/19 07:56:48;;;;;;;;;;;8.90;99.90;;;;;;6212330;23;19927;-89
2023/03/19 07:59:13;;;;;;;;;;;9.00;99.90;;;;;;6185247;23;19908;-88
2023/03/19 08:01:38;;;;;;;;;;;9.10;99.90;;;;;;6184995;23;19900;-86
2023/03/19 08:04:04;;;;;;;;;;;9.00;99.90;;;;;;6184955;23;20233;-86
2023/03/19 08:06:30;;;;;;;;;;;9.10;99.90;;;;;;6212923;23;19976;-89
2023/03/19 08:08:55;;;;;;;;;;;9.20;99.90;;;;;;6211452;23;19900;-88
2023/03/19 08:11:21;;;;;;;;;;;9.20;99.90;;;;;;6185123;23;19978;-87
2023/03/19 08:13:46;;;;;;;;;;;10.10;99.90;;;;;;6211667;23;20222;-86
2023/03/19 08:16:12;;;;;;;;;;;9.20;99.90;;;;;;6211774;23;20238;-85
2023/03/19 08:18:37;;;;;;;;;;;9.20;99.90;;;;;;6209871;23;19998;-85
2023/03/19 08:21:03;;;;;;;;;;;9.30;99.90;;;;;;6210908;23;19982;-84
2023/03/19 08:23:29;;;;;;;;;;;9.30;99.90;;;;;;6186456;23;19907;-86
2023/03/19 08:25:55;;;;;;;;;;;9.40;99.90;;;;;;6211832;23;19900;-85
2023/03/19 08:28:21;;;;;;;;;;;9.30;99.90;;;;;;6211004;23;19932;-85
2023/03/19 08:30:47;;;;;;;;;;;9.40;99.90;;;;;;6210930;23;19907;-84
2023/03/19 08:33:13;;;;;;;;;;;9.40;99.90;;;;;;6211396;23;19922;-87
2023/03/19 08:35:39;;;;;;;;;;;9.40;99.90;;;;;;6203565;23;20599;-86
2023/03/19 08:38:04;;;;;;;;;;;9.40;99.90;;;;;;6208994;23;19903;-87
2023/03/19 08:40:30;;;;;;;;;;;9.70;99.90;;;;;;6210409;23;19900;-87
2023/03/19 08:42:55;;;;;;;;;;;9.40;99.90;;;;;;6210221;23;19904;-86
2023/03/19 08:45:21;;;;;;;;;;;9.50;99.90;;;;;;6183658;23;19935;-85
2023/03/19 08:47:47;;;;;;;;;;;9.40;99.90;;;;;;6210684;23;19923;-86
2023/03/19 08:50:13;;;;;;;;;;;9.80;99.90;;;;;;6210795;23;19937;-88
2023/03/19 08:52:39;;;;;;;;;;;9.10;99.90;;;;;;6202753;23;19904;-85
2023/03/19 08:55:06;;;;;;;;;;;9.10;99.90;;;;;;6209713;23;20325;-86
2023/03/19 08:57:32;;;;;;;;;;;9.10;99.90;;;;;;6211846;23;20345;-86
2023/03/19 08:59:57;;;;;;;;;;;9.20;99.90;;;;;;6211169;23;20282;-86
2023/03/19 09:02:23;;;;;;;;;;;9.50;99.90;;;;;;6211065;23;19904;-85
2023/03/19 09:04:48;;;;;;;;;;;9.60;99.90;;;;;;6184888;23;19995;-86
2023/03/19 09:07:17;;;;;;;;;;;9.60;99.90;;;;;;6183767;23;20302;-85
2023/03/19 09:09:42;;;;;;;;;;;9.50;99.90;;;;;;6211000;23;19900;-84
2023/03/19 09:12:10;;;;;;;;;;;9.80;99.90;;;;;;6211056;23;19915;-84
2023/03/19 09:14:35;;;;;;;;;;;9.90;99.90;;;;;;6184223;23;19923;-87
2023/03/19 09:17:01;;;;;;;;;;;9.90;99.90;;;;;;6211174;23;20325;-85
2023/03/19 09:19:27;;;;;;;;;;;9.90;99.90;;;;;;6211121;23;19931;-86
2023/03/19 09:21:52;;;;;;;;;;;9.60;99.90;;;;;;6184150;23;19900;-85
2023/03/19 09:24:18;;;;;;;;;;;9.70;99.90;;;;;;6210803;23;19938;-84
2023/03/19 09:26:44;;;;;;;;;;;9.80;99.90;;;;;;6210653;23;19900;-85
2023/03/19 09:29:09;;;;;;;;;;;9.80;99.90;;;;;;6210603;23;19900;-85
2023/03/19 09:31:35;;;;;;;;;;;9.80;99.90;;;;;;6210873;23;19958;-84
2023/03/19 09:34:01;;;;;;;;;;;9.90;99.90;;;;;;6185531;23;19900;-90
2023/03/19 09:36:26;;;;;;;;;;;9.80;99.90;;;;;;6184921;23;20372;-87
2023/03/19 09:38:52;;;;;;;;;;;9.90;99.90;;;;;;6211213;23;19990;-87
2023/03/19 09:41:30;;;;;;;;;;;9.80;99.90;;;;;;6210301;23;19899;-88
2023/03/19 09:43:58;;;;;;;;;;;9.90;99.90;;;;;;6210745;23;19931;-85
2023/03/19 09:46:34;;;;;;;;;;;9.90;99.90;;;;;;6184289;23;19899;-88
2023/03/19 09:49:11;;;;;;;;;;;10.00;99.90;;;;;;6211359;23;19907;-86
2023/03/19 09:51:40;;;;;;;;;;;10.00;99.90;;;;;;6211199;23;19900;-88
2023/03/19 09:54:18;;;;;;;;;;;10.00;99.90;;;;;;6211066;23;19900;-87
2023/03/19 09:56:43;;;;;;;;;;;10.00;99.90;;;;;;6210603;23;19900;-87
2023/03/19 09:59:09;;;;;;;;;;;9.90;99.90;;;;;;6184473;23;19999;-90
2023/03/19 10:01:36;;;;;;;;;;;9.90;99.90;;;;;;6185383;23;19907;-87
2023/03/19 10:04:08;;;;;;;;;;;10.00;99.90;;;;;;6184931;23;20352;-89
2023/03/19 10:06:35;;;;;;;;;;;9.90;99.90;;;;;;6213661;23;19900;-87
2023/03/19 10:09:07;;;;;;;;;;;9.80;99.90;;;;;;6186927;23;20233;-86
2023/03/19 10:11:56;;;;;;;;;;;9.90;99.90;;;;;;6213811;23;19955;-86
2023/03/19 10:14:46;;;;;;;;;;;10.10;99.90;;;;;;6212607;23;19904;-87
2023/03/19 10:17:15;;;;;;;;;;;10.30;99.90;;;;;;6212803;23;19911;-87
2023/03/19 10:19:45;;;;;;;;;;;10.50;99.90;;;;;;6211358;23;19916;-87
2023/03/19 10:22:15;;;;;;;;;;;10.50;99.90;;;;;;6213136;23;20376;-85
2023/03/19 10:24:43;;;;;;;;;;;10.30;99.90;;;;;;6186474;23;20240;-86
2023/03/19 10:27:19;;;;;;;;;;;10.50;99.90;;;;;;6212224;23;19900;-86
2023/03/19 10:29:44;;;;;;;;;;;10.40;99.90;;;;;;6212701;23;19995;-87
2023/03/19 10:32:13;;;;;;;;;;;10.50;99.90;;;;;;6185852;23;19982;-88
2023/03/19 10:34:43;;;;;;;;;;;10.60;99.90;;;;;;6212393;23;20325;-86
2023/03/19 10:37:12;;;;;;;;;;;10.50;99.90;;;;;;6212686;23;20404;-87
2023/03/19 10:39:38;;;;;;;;;;;10.60;99.90;;;;;;6212589;23;19950;-86
2023/03/19 10:42:19;;;;;;;;;;;10.70;99.90;;;;;;6186632;23;19900;-90
2023/03/19 10:44:49;;;;;;;;;;;10.80;99.90;;;;;;6212823;23;20335;-86
2023/03/19 10:47:16;;;;;;;;;;;10.90;99.90;;;;;;6212498;23;19900;-86
2023/03/19 10:49:41;;;;;;;;;;;11.10;99.90;;;;;;6212262;23;19915;-88
2023/03/19 10:52:36;;;;;;;;;;;11.10;99.90;;;;;;6213315;23;20352;-86
2023/03/19 10:55:11;;;;;;;;;;;11.00;99.90;;;;;;6180323;23;19903;-88
2023/03/19 10:57:40;;;;;;;;;;;11.20;99.90;;;;;;6213353;23;19904;-89
2023/03/19 11:00:07;;;;;;;;;;;11.10;99.90;;;;;;6213577;23;19983;-88
2023/03/19 11:02:34;;;;;;;;;;;11.00;99.90;;;;;;6212732;23;19931;-88
2023/03/19 11:05:12;;;;;;;;;;;10.60;99.90;;;;;;6212621;23;19908;-88
2023/03/19 11:07:37;;;;;;;;;;;10.40;99.90;;;;;;6213452;23;19903;-89
2023/03/19 11:10:03;;;;;;;;;;;10.20;99.90;;;;;;6211837;23;19939;-89
2023/03/19 11:12:33;;;;;;;;;;;10.30;99.90;;;;;;6211478;23;19900;-87
2023/03/19 11:15:02;;;;;;;;;;;10.50;99.90;;;;;;6212303;23;19900;-88
2023/03/19 11:17:38;;;;;;;;;;;10.70;99.90;;;;;;6211075;23;19907;-88
2023/03/19 11:20:18;;;;;;;;;;;10.80;99.90;;;;;;6212065;23;19907;-86
2023/03/19 11:22:43;;;;;;;;;;;10.70;99.90;;;;;;6212300;23;19900;-87
2023/03/19 11:25:19;;;;;;;;;;;10.90;99.90;;;;;;6212952;23;19970;-87
2023/03/19 11:27:56;;;;;;;;;;;11.20;99.90;;;;;;6185575;23;19946;-87
2023/03/19 11:30:22;;;;;;;;;;;11.40;99.90;;;;;;6184887;23;19903;-86
2023/03/19 11:32:57;;;;;;;;;;;11.20;99.90;;;;;;6185280;23;19957;-87
2023/03/19 11:35:27;;;;;;;;;;;10.80;99.90;;;;;;6212234;23;19904;-88
2023/03/19 11:37:53;;;;;;;;;;;10.70;99.90;;;;;;6212215;23;19998;-88
2023/03/19 11:40:36;;;;;;;;;;;11.00;99.90;;;;;;6185198;23;19931;-87
2023/03/19 11:43:04;;;;;;;;;;;10.90;99.90;;;;;;6212154;23;20114;-87
2023/03/19 11:45:48;;;;;;;;;;;10.90;99.90;;;;;;6184765;23;19900;-89
2023/03/19 11:48:34;;;;;;;;;;;11.00;99.90;;;;;;6211772;23;19899;-88
2023/03/19 11:51:03;;;;;;;;;;;11.10;99.90;;;;;;6211425;23;19958;-86
2023/03/19 11:53:38;;;;;;;;;;;11.40;99.90;;;;;;6212093;23;20289;-86
2023/03/19 11:56:22;;;;;;;;;;;11.50;99.90;;;;;;6184748;23;19919;-87
2023/03/19 11:59:06;;;;;;;;;;;11.70;99.90;;;;;;6211838;23;20363;-87
2023/03/19 12:01:50;;;;;;;;;;;11.40;99.90;;;;;;6184681;23;20522;-87
2023/03/19 12:04:16;;;;;;;;;;;11.00;99.90;;;;;;6212137;23;20325;-87
2023/03/19 12:06:47;;;;;;;;;;;10.90;99.90;;;;;;6186335;23;19911;-88
2023/03/19 12:09:42;;;;;;;;;;;11.20;99.90;;;;;;6211557;23;19900;-87
2023/03/19 12:12:23;;;;;;;;;;;11.40;99.90;;;;;;6081639;23;19988;-90
2023/03/19 12:15:01;;;;;;;;;;;11.80;99.90;;;;;;6212073;23;19900;-89
2023/03/19 12:17:27;;;;;;;;;;;11.80;99.90;;;;;;6211263;23;19911;-89
2023/03/19 12:19:53;;;;;;;;;;;11.70;99.90;;;;;;6211795;23;19962;-87
2023/03/19 12:22:37;;;;;;;;;;;11.40;99.90;;;;;;6211811;23;20351;-86
2023/03/19 12:25:23;;;;;;;;;;;11.50;99.90;;;;;;6184837;23;19950;-87
2023/03/19 12:27:53;;;;;;;;;;;11.80;99.90;;;;;;6210152;23;20383;-87
2023/03/19 12:30:37;;;;;;;;;;;11.80;99.90;;;;;;6211251;23;19923;-89
2023/03/19 12:33:09;;;;;;;;;;;11.70;99.90;;;;;;6184952;23;20353;-87
2023/03/19 12:35:35;;;;;;;;;;;11.60;99.90;;;;;;6184782;23;20709;-88
2023/03/19 12:38:04;;;;;;;;;;;11.70;99.90;;;;;;6211349;23;19998;-86
2023/03/19 12:40:49;;;;;;;;;;;11.90;99.90;;;;;;6211116;23;19900;-89
2023/03/19 12:43:20;;;;;;;;;;;12.10;99.90;;;;;;6186100;23;19907;-89
2023/03/19 12:45:48;;;;;;;;;;;12.00;99.90;;;;;;6211990;23;19971;-86
2023/03/19 12:48:37;;;;;;;;;;;11.90;99.90;;;;;;6186098;23;19931;-86
2023/03/19 12:51:06;;;;;;;;;;;11.90;99.90;;;;;;6191488;23;19903;-86
2023/03/19 12:53:44;;;;;;;;;;;12.00;99.90;;;;;;6210820;23;19922;-87
2023/03/19 12:56:23;;;;;;;;;;;12.10;99.90;;;;;;6201588;23;19907;-88
2023/03/19 12:59:06;;;;;;;;;;;11.90;99.90;;;;;;6209927;23;19908;-88
2023/03/19 13:01:41;;;;;;;;;;;11.70;99.90;;;;;;6209525;23;19900;-87
2023/03/19 13:04:12;;;;;;;;;;;11.50;99.90;;;;;;6183486;23;19923;-89
2023/03/19 13:06:41;;;;;;;;;;;11.40;99.90;;;;;;6210796;23;19907;-89
2023/03/19 13:09:17;;;;;;;;;;;11.60;99.90;;;;;;6210623;23;19901;-89
2023/03/19 13:11:55;;;;;;;;;;;11.80;99.90;;;;;;6211050;23;19975;-89
2023/03/19 13:14:24;;;;;;;;;;;12.10;99.90;;;;;;6209312;23;19900;-85
2023/03/19 13:17:00;;;;;;;;;;;12.40;99.90;;;;;;6210562;23;19908;-85
2023/03/19 13:19:26;;;;;;;;;;;12.30;99.90;;;;;;6210201;23;19923;-85
2023/03/19 13:21:55;;;;;;;;;;;12.20;99.90;;;;;;6184086;23;20341;-85
2023/03/19 13:24:26;;;;;;;;;;;12.20;99.90;;;;;;6183676;23;19922;-84
2023/03/19 13:26:52;;;;;;;;;;;12.20;99.90;;;;;;6183702;23;19900;-86
2023/03/19 13:29:18;;;;;;;;;;;12.50;99.90;;;;;;6210137;23;19899;-85
2023/03/19 13:31:45;;;;;;;;;;;12.20;99.90;;;;;;6212133;23;19946;-87
2023/03/19 13:34:19;;;;;;;;;;;11.90;99.90;;;;;;6210345;23;19900;-87
2023/03/19 13:36:47;;;;;;;;;;;11.90;99.90;;;;;;6212068;23;19907;-87
2023/03/19 13:39:17;;;;;;;;;;;11.90;99.90;;;;;;6211715;23;19912;-86
2023/03/19 13:41:42;;;;;;;;;;;11.80;99.90;;;;;;6204629;23;19904;-86
2023/03/19 13:44:23;;;;;;;;;;;11.90;99.90;;;;;;6210948;23;19900;-88
2023/03/19 13:46:48;;;;;;;;;;;11.60;99.90;;;;;;6211039;23;19931;-88
2023/03/19 13:49:20;;;;;;;;;;;11.70;99.90;;;;;;6211653;23;19900;-87
2023/03/19 13:51:49;;;;;;;;;;;11.90;99.90;;;;;;6185136;23;19983;-83
2023/03/19 13:54:17;;;;;;;;;;;11.80;99.90;;;;;;6212113;23;20214;-87
2023/03/19 13:57:00;;;;;;;;;;;11.70;99.90;;;;;;6184355;23;19904;-86
2023/03/19 13:59:26;;;;;;;;;;;11.90;99.90;;;;;;6210572;23;19915;-86
2023/03/19 14:01:52;;;;;;;;;;;12.20;99.90;;;;;;6184019;23;19964;-87
2023/03/19 14:04:32;;;;;;;;;;;12.30;99.90;;;;;;6210948;23;19900;-85
2023/03/19 14:06:57;;;;;;;;;;;12.40;99.90;;;;;;6184525;23;19907;-88
2023/03/19 14:09:36;;;;;;;;;;;12.40;99.90;;;;;;6210962;23;19900;-86
2023/03/19 14:12:09;;;;;;;;;;;12.10;99.90;;;;;;6210363;23;19934;-87
2023/03/19 14:14:39;;;;;;;;;;;12.00;99.90;;;;;;6210041;23;19904;-87
2023/03/19 14:17:09;;;;;;;;;;;12.20;99.90;;;;;;6210548;23;19907;-86
2023/03/19 14:19:39;;;;;;;;;;;12.20;99.90;;;;;;6210656;23;19943;-87
2023/03/19 14:22:07;;;;;;;;;;;12.20;99.90;;;;;;6210126;23;19921;-88
2023/03/19 14:24:38;;;;;;;;;;;12.20;99.90;;;;;;6210935;23;19904;-90
2023/03/19 14:27:14;;;;;;;;;;;12.30;99.90;;;;;;6210498;23;19946;-83
2023/03/19 14:29:42;;;;;;;;;;;12.50;99.90;;;;;;6184401;23;19940;-88
2023/03/19 14:32:10;;;;;;;;;;;12.40;99.90;;;;;;6210358;23;19900;-89